« 撃鉄1 小松飛行場 2019/10/10 thu | トップページ | 定点 富山空港 2019/10/13 sun »

2019/10/12

来襲 富山空港 2019/10/12 sat

台風19号の来襲により、この週末は全国的に大荒れとなる模様。この週末、いろいろなイベントの為お休みを調整した小生も、ポッカリ台風の目状態に。

RJNT 120000Z 04006KT 010V080 5000 -SHRA BR FEW002 BKN008 BKN012 21/20 Q1004

20191012_rjnt_00ja85an

関東直撃なので、昨日から各社航空機を避難させてます。

20191012_rjnt_02ja85an

本日、早くにANA313で避難してきた JA85AN

20191012_rjnt_03ja51an

昨日の最終で本日312で出発予定だった JA51AN

20191012_rjnt_04rw02

風は北から強風ですが、雨はそれほどでも

RJNT 120100Z 02018G30KT 350V050 3500 SHRA BR FEW002 SCT004 BKN007 22/21 Q1003

20191012_rjnt_05dep

本日の出発便は、新千歳行きのANA1181のみ

20191012_rjnt_06ja85an

ターミナルは強風で、写真を撮ってる場合じゃない

RJNT 120200Z 01021G33KT 3500 -SHRA BR FEW002 BKN005 BKN010 21/20 Q1002

20191012_rjnt_07ja51an

JA51ANはANA1181として新千歳へ

20191012_rjnt_08ja51an

20191012_rjnt_09ja51an

20191012_rjnt_10ja51an

ANA1181 RJNT-RJCC JA51AN B737-881

20191012_rjnt_11ja51an

はたして折り返しは、帰ってこれるのでしょうか

20191012_rjnt_12ja51an

新千歳でエレファント・ウォークを見てみたい

空港はこの一便のみで、帰路で台風の状況を

RJNT 120300Z 01025G40KT 4500 -SHRA BR FEW002 BKN007 BKN010 21/20 Q1000

20191012_zjs_13iwase

岩瀬漁港 波は高いが、うねりは大きくないような

20191012_zjs_14jintsu

富山市消防局の消防艇「神通」さんも、波のあたらない処に避難

20191012_zjs_15iwase

波より砂嵐が酷い

20191012_zjs_16mizuhashi

自然の力は凄いよね

20191012_zjs_17mizuhashi

灯台を飲み込む波頭

20191012_zjs_18mizuhashi

強風により、風害警戒に消防車が出動していました。

午後から空は静かだ

|

« 撃鉄1 小松飛行場 2019/10/10 thu | トップページ | 定点 富山空港 2019/10/13 sun »

富山空港」カテゴリの記事

警務消防」カテゴリの記事

コメント

コメントを書く



(ウェブ上には掲載しません)


コメントは記事投稿者が公開するまで表示されません。



« 撃鉄1 小松飛行場 2019/10/10 thu | トップページ | 定点 富山空港 2019/10/13 sun »